PWSweather.com
Personal Weather Stations
Station Observations
PWSLORIS
The Farm At Fox Bay, Loris, SC 29569

The Farm At Fox BayLoris, SC 29569

Lat: 34.067097, Lon: -78.86907

Elevation: 108

Station Type: Davis Vantage Pro2 with 24 hr. FARS and solar

http://www.lorisweather.com

High Low Average
Temperature 88.3°F31.3°C 76.6°F24.8°C 81.4°F27.4°C
Dew Point 79.4°F26.3°C 73.8°F23.2°C 76.3°F24.6°C
Winds 9.2 mph 14.8 kmh Calm Calm 3.0 mph S4.8 kmh S
Wind Gusts 17.3 mph27.8 kmh -- 6.0 mph9.7 kmh
Humidity 92% 71% 85%
Pressure 29.99 in1015.6 mb 29.90 in1012.5 mb -
Precipitation 2.74 in69.6 mm - -
Hour Temp Dew Point Humidity Winds Wind Gusts Pressure Precip Precip Rate Daily Precip Total
12:00 AM 75.0°F23.9°C 72.5°F22.5°C 92% 1.2 mph S1.9 kmh S 4.6 mph7.4 kmh 29.94 in1013.9 mb - 1.84 in46.7 mm 1.84 in46.7 mm
12:15 AM 75.9°F24.4°C 73.1°F22.8°C 91% 1.2 mph S1.9 kmh S 8.1 mph13.0 kmh 29.95 in1014.2 mb - 1.88 in47.8 mm 0.60 in15.2 mm
12:30 AM 77.7°F25.4°C 75.2°F24.0°C 92% 5.8 mph SE9.3 kmh SE 9.2 mph14.8 kmh 29.93 in1013.5 mb - 1.80 in45.7 mm 1.20 in30.5 mm
12:45 AM 77.8°F25.4°C 74.3°F23.5°C 89% 11.5 mph SSE18.5 kmh SSE 23.0 mph37.0 kmh 29.94 in1013.9 mb - 1.64 in41.7 mm 1.26 in32.0 mm
01:00 AM 78.1°F25.6°C 75.3°F24.1°C 91% 4.6 mph S7.4 kmh S 12.7 mph20.4 kmh 29.95 in1014.2 mb - 1.69 in42.9 mm 1.69 in42.9 mm
01:15 AM 77.5°F25.3°C 74.7°F23.7°C 91% Calm Calm 1.2 mph1.9 kmh 29.94 in1013.9 mb - 1.27 in32.3 mm 1.80 in45.7 mm
01:30 AM 78.0°F25.6°C 75.5°F24.2°C 92% Calm Calm 1.2 mph1.9 kmh 29.93 in1013.5 mb - 0.69 in17.5 mm 1.87 in47.5 mm
01:45 AM 78.6°F25.9°C 76.1°F24.5°C 92% Calm Calm 3.5 mph5.6 kmh 29.95 in1014.2 mb - 0.79 in20.1 mm 2.02 in51.3 mm
02:00 AM 78.3°F25.7°C 75.8°F24.3°C 92% Calm Calm -- 29.95 in1014.2 mb - 0.57 in14.5 mm 2.19 in55.6 mm
02:15 AM 76.6°F24.8°C 73.8°F23.2°C 91% Calm Calm -- 29.93 in1013.5 mb - 0.66 in16.8 mm 2.46 in62.5 mm
02:30 AM 79.0°F26.1°C 76.4°F24.7°C 92% 8.1 mph S13.0 kmh S 9.2 mph14.8 kmh 29.93 in1013.5 mb - 0.59 in15.0 mm 2.46 in62.5 mm
02:45 AM 79.6°F26.4°C 76.7°F24.8°C 91% 6.9 mph S11.1 kmh S 11.5 mph18.5 kmh 29.93 in1013.5 mb - 0.45 in11.4 mm 2.46 in62.5 mm
03:00 AM 79.9°F26.6°C 76.7°F24.8°C 90% 5.8 mph S9.3 kmh S 9.2 mph14.8 kmh 29.93 in1013.5 mb - 0.30 in7.6 mm 2.46 in62.5 mm
03:15 AM 80.0°F26.7°C 76.8°F24.9°C 90% 6.9 mph SSE11.1 kmh SSE 10.4 mph16.7 kmh 29.93 in1013.5 mb - 0.01 in0.3 mm 2.47 in62.7 mm
03:30 AM 79.8°F26.6°C 76.6°F24.8°C 90% 4.6 mph S7.4 kmh S 10.4 mph16.7 kmh 29.93 in1013.5 mb - 0.03 in0.8 mm 2.49 in63.2 mm
03:45 AM 79.7°F26.5°C 76.5°F24.7°C 90% 8.1 mph S13.0 kmh S 9.2 mph14.8 kmh 29.92 in1013.2 mb - 0.03 in0.8 mm 2.49 in63.2 mm
04:00 AM 79.6°F26.4°C 76.4°F24.7°C 90% 5.8 mph S9.3 kmh S 11.5 mph18.5 kmh 29.92 in1013.2 mb - 0.03 in0.8 mm 2.49 in63.2 mm
04:15 AM 79.7°F26.5°C 76.5°F24.7°C 90% 2.3 mph S3.7 kmh S 5.8 mph9.3 kmh 29.93 in1013.5 mb - 0.03 in0.8 mm 2.49 in63.2 mm
04:30 AM 79.8°F26.6°C 76.6°F24.8°C 90% 4.6 mph S7.4 kmh S 9.2 mph14.8 kmh 29.93 in1013.5 mb - 0.03 in0.8 mm 2.52 in64.0 mm
04:45 AM 79.6°F26.4°C 76.4°F24.7°C 90% 4.6 mph S7.4 kmh S 8.1 mph13.0 kmh 29.93 in1013.5 mb - 0.04 in1.0 mm 2.53 in64.3 mm
05:00 AM 79.6°F26.4°C 76.4°F24.7°C 90% 2.3 mph S3.7 kmh S 3.5 mph5.6 kmh 29.94 in1013.9 mb - 0.04 in1.0 mm 2.53 in64.3 mm
05:15 AM 79.4°F26.3°C 76.2°F24.6°C 90% 1.2 mph S1.9 kmh S 3.5 mph5.6 kmh 29.94 in1013.9 mb - 0.04 in1.0 mm 2.53 in64.3 mm
05:30 AM 79.4°F26.3°C 76.5°F24.7°C 91% 1.2 mph S1.9 kmh S -- 29.94 in1013.9 mb - 0.03 in0.8 mm 2.54 in64.5 mm
05:45 AM 79.4°F26.3°C 76.6°F24.8°C 91% 1.2 mph S1.9 kmh S 3.5 mph5.6 kmh 29.93 in1013.5 mb - 0.01 in0.3 mm 2.54 in64.5 mm
06:00 AM 79.5°F26.4°C 76.6°F24.8°C 91% 2.3 mph S3.7 kmh S 3.5 mph5.6 kmh 29.94 in1013.9 mb - 0.02 in0.5 mm 2.55 in64.8 mm
06:15 AM 79.2°F26.2°C 76.0°F24.4°C 90% 1.2 mph S1.9 kmh S 6.9 mph11.1 kmh 29.95 in1014.2 mb - 0.18 in4.6 mm 2.71 in68.8 mm
06:30 AM 78.7°F25.9°C 75.2°F24.0°C 89% 4.6 mph S7.4 kmh S 5.8 mph9.3 kmh 29.95 in1014.2 mb - 0.17 in4.3 mm 2.71 in68.8 mm
06:45 AM 78.2°F25.7°C 75.0°F23.9°C 90% 4.6 mph S7.4 kmh S 5.8 mph9.3 kmh 29.95 in1014.2 mb - 0.17 in4.3 mm 2.71 in68.8 mm
07:00 AM 78.2°F25.7°C 75.0°F23.9°C 90% 2.3 mph S3.7 kmh S 4.6 mph7.4 kmh 29.95 in1014.2 mb - 0.16 in4.1 mm 2.71 in68.8 mm
07:15 AM 78.5°F25.8°C 75.7°F24.3°C 91% 2.3 mph SSE3.7 kmh SSE 3.5 mph5.6 kmh 29.95 in1014.2 mb - 0.00 in0.0 mm 2.71 in68.8 mm
07:30 AM 78.9°F26.1°C 76.0°F24.4°C 91% 4.6 mph SSE7.4 kmh SSE 6.9 mph11.1 kmh 29.95 in1014.2 mb - 0.00 in0.0 mm 2.71 in68.8 mm
07:45 AM 79.4°F26.3°C 76.2°F24.6°C 90% 3.5 mph S5.6 kmh S 4.6 mph7.4 kmh 29.96 in1014.6 mb - 0.00 in0.0 mm 2.71 in68.8 mm
08:00 AM 79.4°F26.3°C 76.2°F24.6°C 90% 5.8 mph S9.3 kmh S 6.9 mph11.1 kmh 29.96 in1014.6 mb - 0.03 in0.8 mm 2.74 in69.6 mm
08:15 AM 78.4°F25.8°C 74.9°F23.8°C 89% 4.6 mph S7.4 kmh S 9.2 mph14.8 kmh 29.97 in1014.9 mb - 0.03 in0.8 mm 2.74 in69.6 mm
08:30 AM 78.4°F25.8°C 74.9°F23.8°C 89% 4.6 mph S7.4 kmh S 4.6 mph7.4 kmh 29.97 in1014.9 mb - 0.03 in0.8 mm 2.74 in69.6 mm
08:45 AM 78.9°F26.1°C 75.4°F24.1°C 89% 3.5 mph S5.6 kmh S 5.8 mph9.3 kmh 29.97 in1014.9 mb - 0.03 in0.8 mm 2.74 in69.6 mm
09:00 AM 79.4°F26.3°C 75.5°F24.2°C 88% 4.6 mph S7.4 kmh S 5.8 mph9.3 kmh 29.97 in1014.9 mb - 0.00 in0.0 mm 2.74 in69.6 mm
09:15 AM 79.6°F26.4°C 76.1°F24.5°C 89% 1.2 mph S1.9 kmh S 3.5 mph5.6 kmh 29.97 in1014.9 mb - 0.00 in0.0 mm 2.74 in69.6 mm
09:30 AM 80.2°F26.8°C 76.0°F24.4°C 87% 3.5 mph S5.6 kmh S 3.5 mph5.6 kmh 29.98 in1015.2 mb - 0.00 in0.0 mm 2.74 in69.6 mm
09:45 AM 81.2°F27.3°C 76.6°F24.8°C 86% 4.6 mph S7.4 kmh S 9.2 mph14.8 kmh 29.97 in1014.9 mb - 0.00 in0.0 mm 2.74 in69.6 mm
10:00 AM 82.5°F28.1°C 77.9°F25.5°C 86% Calm Calm -- 29.98 in1015.2 mb - 0.00 in0.0 mm 2.74 in69.6 mm
10:15 AM 83.1°F28.4°C 77.4°F25.2°C 83% 6.9 mph S11.1 kmh S 9.2 mph14.8 kmh 29.98 in1015.2 mb - 0.00 in0.0 mm 2.74 in69.6 mm
10:30 AM 83.2°F28.4°C 77.5°F25.3°C 83% 5.8 mph S9.3 kmh S 11.5 mph18.5 kmh 29.98 in1015.2 mb - 0.00 in0.0 mm 2.74 in69.6 mm
10:45 AM 82.9°F28.3°C 77.2°F25.1°C 83% 2.3 mph S3.7 kmh S 5.8 mph9.3 kmh 29.98 in1015.2 mb - 0.00 in0.0 mm 2.74 in69.6 mm
11:00 AM 82.8°F28.2°C 77.1°F25.1°C 83% 5.8 mph S9.3 kmh S 9.2 mph14.8 kmh 29.99 in1015.6 mb - 0.00 in0.0 mm 2.74 in69.6 mm
11:15 AM 83.1°F28.4°C 77.0°F25.0°C 82% 6.9 mph S11.1 kmh S 9.2 mph14.8 kmh 29.98 in1015.2 mb - 0.00 in0.0 mm 2.74 in69.6 mm
11:30 AM 85.2°F29.6°C 78.3°F25.7°C 80% 3.5 mph S5.6 kmh S 8.1 mph13.0 kmh 29.98 in1015.2 mb - 0.00 in0.0 mm 2.74 in69.6 mm
11:45 AM 85.3°F29.6°C 78.1°F25.6°C 79% 2.3 mph SSW3.7 kmh SSW 3.5 mph5.6 kmh 29.97 in1014.9 mb - 0.00 in0.0 mm 2.74 in69.6 mm
12:00 PM 85.0°F29.4°C 77.8°F25.4°C 79% 2.3 mph S3.7 kmh S 3.5 mph5.6 kmh 29.97 in1014.9 mb - 0.00 in0.0 mm 2.74 in69.6 mm
12:15 PM 84.5°F29.2°C 77.3°F25.2°C 79% 8.1 mph S13.0 kmh S 10.4 mph16.7 kmh 29.98 in1015.2 mb - 0.00 in0.0 mm 2.74 in69.6 mm
12:30 PM 84.4°F29.1°C 77.9°F25.5°C 81% 2.3 mph SSW3.7 kmh SSW 1.2 mph1.9 kmh 29.98 in1015.2 mb - 0.00 in0.0 mm 2.74 in69.6 mm
12:45 PM 85.1°F29.5°C 79.0°F26.1°C 82% Calm Calm -- 29.97 in1014.9 mb - 0.00 in0.0 mm 2.74 in69.6 mm
01:00 PM 84.6°F29.2°C 78.1°F25.6°C 81% 3.5 mph S5.6 kmh S 4.6 mph7.4 kmh 29.97 in1014.9 mb - 0.00 in0.0 mm 2.74 in69.6 mm
01:15 PM 85.9°F29.9°C 78.3°F25.7°C 78% 4.6 mph S7.4 kmh S 6.9 mph11.1 kmh 29.96 in1014.6 mb - 0.00 in0.0 mm 2.74 in69.6 mm
01:30 PM 87.0°F30.6°C 78.9°F26.1°C 77% 4.6 mph SSW7.4 kmh SSW 9.2 mph14.8 kmh 29.96 in1014.6 mb - 0.00 in0.0 mm 2.74 in69.6 mm
01:45 PM 86.6°F30.3°C 78.9°F26.1°C 78% 1.2 mph S1.9 kmh S 5.8 mph9.3 kmh 29.95 in1014.2 mb - 0.00 in0.0 mm 2.74 in69.6 mm
02:00 PM 86.1°F30.1°C 78.4°F25.8°C 78% 4.6 mph S7.4 kmh S 6.9 mph11.1 kmh 29.95 in1014.2 mb - 0.00 in0.0 mm 2.74 in69.6 mm
02:15 PM 86.3°F30.2°C 78.3°F25.7°C 77% 2.3 mph S3.7 kmh S 3.5 mph5.6 kmh 29.95 in1014.2 mb - 0.00 in0.0 mm 2.74 in69.6 mm
02:30 PM 85.7°F29.8°C 78.0°F25.6°C 78% 3.5 mph S5.6 kmh S 4.6 mph7.4 kmh 29.94 in1013.9 mb - 0.00 in0.0 mm 2.74 in69.6 mm
02:45 PM 88.3°F31.3°C 79.4°F26.3°C 75% 5.8 mph S9.3 kmh S 8.1 mph13.0 kmh 29.94 in1013.9 mb - 0.00 in0.0 mm 2.74 in69.6 mm
03:00 PM 87.4°F30.8°C 77.7°F25.4°C 73% 8.1 mph SSE13.0 kmh SSE 11.5 mph18.5 kmh 29.93 in1013.5 mb - 0.00 in0.0 mm 2.74 in69.6 mm
03:15 PM 87.1°F30.6°C 77.0°F25.0°C 72% 8.1 mph S13.0 kmh S 11.5 mph18.5 kmh 29.93 in1013.5 mb - 0.00 in0.0 mm 2.74 in69.6 mm
03:30 PM 86.4°F30.2°C 75.9°F24.4°C 71% 9.2 mph SSE14.8 kmh SSE 11.5 mph18.5 kmh 29.93 in1013.5 mb - 0.00 in0.0 mm 2.74 in69.6 mm
03:45 PM 86.3°F30.2°C 76.6°F24.8°C 73% 9.2 mph S14.8 kmh S 17.3 mph27.8 kmh 29.92 in1013.2 mb - 0.00 in0.0 mm 2.74 in69.6 mm
04:00 PM 86.2°F30.1°C 77.3°F25.2°C 75% 6.9 mph S11.1 kmh S 8.1 mph13.0 kmh 29.91 in1012.9 mb - 0.00 in0.0 mm 2.74 in69.6 mm
04:15 PM 85.5°F29.7°C 77.5°F25.3°C 77% 3.5 mph S5.6 kmh S 9.2 mph14.8 kmh 29.91 in1012.9 mb - 0.00 in0.0 mm 2.74 in69.6 mm
04:30 PM 85.1°F29.5°C 77.1°F25.1°C 77% 9.2 mph S14.8 kmh S 16.1 mph25.9 kmh 29.91 in1012.9 mb - 0.00 in0.0 mm 2.74 in69.6 mm
04:45 PM 85.7°F29.8°C 77.7°F25.4°C 77% 6.9 mph S11.1 kmh S 9.2 mph14.8 kmh 29.90 in1012.5 mb - 0.00 in0.0 mm 2.74 in69.6 mm
05:00 PM 85.8°F29.9°C 76.6°F24.8°C 74% 8.1 mph S13.0 kmh S 9.2 mph14.8 kmh 29.90 in1012.5 mb - 0.00 in0.0 mm 2.74 in69.6 mm
05:15 PM 85.6°F29.8°C 76.8°F24.9°C 75% 8.1 mph S13.0 kmh S 12.7 mph20.4 kmh 29.90 in1012.5 mb - 0.00 in0.0 mm 2.74 in69.6 mm
05:30 PM 84.9°F29.4°C 76.5°F24.7°C 76% 4.6 mph S7.4 kmh S 6.9 mph11.1 kmh 29.91 in1012.9 mb - 0.00 in0.0 mm 2.74 in69.6 mm
05:45 PM 84.7°F29.3°C 76.7°F24.8°C 77% 2.3 mph S3.7 kmh S 6.9 mph11.1 kmh 29.91 in1012.9 mb - 0.00 in0.0 mm 2.74 in69.6 mm
06:00 PM 84.3°F29.1°C 76.3°F24.6°C 77% 5.8 mph S9.3 kmh S 12.7 mph20.4 kmh 29.91 in1012.9 mb - 0.00 in0.0 mm 2.74 in69.6 mm
06:15 PM 84.0°F28.9°C 76.0°F24.4°C 77% 8.1 mph S13.0 kmh S 13.8 mph22.2 kmh 29.90 in1012.5 mb - 0.00 in0.0 mm 2.74 in69.6 mm
06:30 PM 83.8°F28.8°C 75.8°F24.3°C 77% 9.2 mph S14.8 kmh S 10.4 mph16.7 kmh 29.90 in1012.5 mb - 0.00 in0.0 mm 2.74 in69.6 mm
06:45 PM 83.3°F28.5°C 76.1°F24.5°C 79% 3.5 mph S5.6 kmh S 9.2 mph14.8 kmh 29.90 in1012.5 mb - 0.00 in0.0 mm 2.74 in69.6 mm
07:00 PM 82.3°F27.9°C 75.5°F24.2°C 80% 3.5 mph S5.6 kmh S 5.8 mph9.3 kmh 29.90 in1012.5 mb - 0.00 in0.0 mm 2.74 in69.6 mm
07:15 PM 81.6°F27.6°C 75.9°F24.4°C 83% 2.3 mph S3.7 kmh S 4.6 mph7.4 kmh 29.90 in1012.5 mb - 0.00 in0.0 mm 2.74 in69.6 mm
07:30 PM 81.0°F27.2°C 75.3°F24.1°C 83% 1.2 mph S1.9 kmh S 3.5 mph5.6 kmh 29.90 in1012.5 mb - 0.00 in0.0 mm 2.74 in69.6 mm
07:45 PM 80.4°F26.9°C 75.4°F24.1°C 85% Calm Calm -- 29.90 in1012.5 mb - 0.00 in0.0 mm 2.74 in69.6 mm
08:00 PM 80.1°F26.7°C 75.1°F23.9°C 85% 1.2 mph S1.9 kmh S 3.5 mph5.6 kmh 29.90 in1012.5 mb - 0.00 in0.0 mm 2.74 in69.6 mm
08:15 PM 79.3°F26.3°C 74.7°F23.7°C 86% 1.2 mph S1.9 kmh S 1.2 mph1.9 kmh 29.92 in1013.2 mb - 0.00 in0.0 mm 2.74 in69.6 mm
08:30 PM 78.4°F25.8°C 74.2°F23.4°C 87% Calm Calm -- 29.93 in1013.5 mb - 0.00 in0.0 mm 2.74 in69.6 mm
08:45 PM 78.8°F26.0°C 74.2°F23.4°C 86% 2.3 mph S3.7 kmh S 3.5 mph5.6 kmh 29.93 in1013.5 mb - 0.00 in0.0 mm 2.74 in69.6 mm
09:00 PM 78.8°F26.0°C 74.2°F23.4°C 86% 2.3 mph SSE3.7 kmh SSE 3.5 mph5.6 kmh 29.93 in1013.5 mb - 0.00 in0.0 mm 2.74 in69.6 mm
09:15 PM 78.9°F26.1°C 74.7°F23.7°C 87% 2.3 mph S3.7 kmh S 3.5 mph5.6 kmh 29.93 in1013.5 mb - 0.00 in0.0 mm 2.74 in69.6 mm
09:30 PM 78.8°F26.0°C 74.6°F23.7°C 87% Calm Calm -- 29.94 in1013.9 mb - 0.00 in0.0 mm 2.74 in69.6 mm
09:45 PM 78.1°F25.6°C 74.6°F23.7°C 89% Calm Calm -- 29.95 in1014.2 mb - 0.00 in0.0 mm 2.74 in69.6 mm
10:00 PM 77.8°F25.4°C 74.6°F23.7°C 90% Calm Calm -- 29.94 in1013.9 mb - 0.00 in0.0 mm 2.74 in69.6 mm
10:15 PM 78.0°F25.6°C 74.5°F23.6°C 89% Calm Calm -- 29.94 in1013.9 mb - 0.00 in0.0 mm 2.74 in69.6 mm
10:30 PM 78.1°F25.6°C 74.6°F23.7°C 89% 1.2 mph S1.9 kmh S 3.5 mph5.6 kmh 29.94 in1013.9 mb - 0.00 in0.0 mm 2.74 in69.6 mm
10:45 PM 78.2°F25.7°C 74.7°F23.7°C 89% Calm Calm -- 29.94 in1013.9 mb - 0.00 in0.0 mm 2.74 in69.6 mm
11:00 PM 78.1°F25.6°C 74.9°F23.8°C 90% Calm Calm 1.2 mph1.9 kmh 29.94 in1013.9 mb - 0.00 in0.0 mm 2.74 in69.6 mm
11:15 PM 78.7°F25.9°C 75.2°F24.0°C 89% 1.2 mph SSW1.9 kmh SSW 6.9 mph11.1 kmh 29.93 in1013.5 mb - 0.00 in0.0 mm 2.74 in69.6 mm
11:30 PM 78.8°F26.0°C 75.3°F24.1°C 89% Calm Calm 1.2 mph1.9 kmh 29.94 in1013.9 mb - 0.00 in0.0 mm 2.74 in69.6 mm
11:45 PM 79.1°F26.2°C 75.6°F24.2°C 89% 1.2 mph S1.9 kmh S 1.2 mph1.9 kmh 29.94 in1013.9 mb - 0.00 in0.0 mm 2.74 in69.6 mm